createdAt,value
2019-02-19T00:00:37.292Z,18.23
2019-02-19T00:03:09.055Z,18.42
2019-02-19T00:05:40.450Z,18.45
2019-02-19T00:08:12.082Z,18.45
2019-02-19T00:10:43.686Z,18.25
2019-02-19T00:13:14.738Z,18.06
2019-02-19T00:15:46.102Z,18.32
2019-02-19T00:18:17.496Z,18.32
2019-02-19T00:20:49.279Z,18.47
2019-02-19T00:23:20.593Z,18.44
2019-02-19T00:25:51.992Z,18.44
2019-02-19T00:28:23.528Z,18.47
2019-02-19T00:30:55.466Z,18.22
2019-02-19T00:33:26.989Z,18.22
2019-02-19T00:35:58.157Z,18.40
2019-02-19T00:38:29.680Z,18.40
2019-02-19T00:41:00.941Z,18.34
2019-02-19T00:43:35.648Z,18.19
2019-02-19T00:46:07.347Z,18.19
2019-02-19T00:48:39.356Z,17.93
2019-02-19T00:51:10.568Z,17.93
2019-02-19T00:53:41.853Z,18.12
2019-02-19T00:56:13.336Z,18.12
2019-02-19T00:58:45.054Z,18.04
2019-02-19T01:01:16.313Z,17.94
2019-02-19T01:03:47.662Z,18.05
2019-02-19T01:06:18.829Z,18.05
2019-02-19T01:08:50.470Z,17.67
2019-02-19T01:11:21.755Z,17.67
2019-02-19T01:13:54.084Z,18.02
2019-02-19T01:16:25.463Z,18.02
2019-02-19T01:18:56.776Z,17.86
2019-02-19T01:21:27.932Z,17.83
2019-02-19T01:23:59.431Z,17.89
2019-02-19T01:26:30.888Z,18.03
2019-02-19T01:29:02.198Z,17.69
2019-02-19T01:31:33.539Z,17.69
2019-02-19T01:34:04.784Z,17.94
2019-02-19T01:36:36.131Z,17.64
2019-02-19T01:39:07.766Z,17.76
2019-02-19T01:41:39.160Z,17.76
2019-02-19T01:44:10.525Z,17.94
2019-02-19T01:46:41.854Z,17.63
2019-02-19T01:49:13.178Z,17.63
2019-02-19T01:51:44.345Z,17.99
2019-02-19T01:54:16.526Z,17.99
2019-02-19T01:56:47.925Z,19.84
2019-02-19T01:59:19.105Z,19.86
2019-02-19T02:01:50.491Z,19.86
2019-02-19T02:04:21.884Z,19.88
2019-02-19T02:06:53.578Z,19.95
2019-02-19T02:09:25.105Z,19.95
2019-02-19T02:11:56.578Z,19.82
2019-02-19T02:14:28.175Z,19.82
2019-02-19T02:17:00.934Z,19.82
2019-02-19T02:19:32.433Z,19.59
2019-02-19T02:22:03.779Z,19.74
2019-02-19T02:24:36.140Z,20.08
2019-02-19T02:27:07.272Z,20.23
2019-02-19T02:29:38.690Z,20.23
2019-02-19T02:32:09.997Z,20.25
2019-02-19T02:34:41.616Z,20.37
2019-02-19T02:37:13.032Z,20.43
2019-02-19T02:39:44.484Z,20.34
2019-02-19T02:42:16.089Z,20.42
2019-02-19T02:44:47.890Z,20.42
2019-02-19T02:47:19.225Z,20.46
2019-02-19T02:49:51.331Z,20.57
2019-02-19T02:52:22.399Z,20.57
2019-02-19T02:54:54.432Z,20.35
2019-02-19T02:57:25.929Z,20.29
2019-02-19T02:59:58.333Z,20.29
2019-02-19T03:02:30.626Z,20.52
2019-02-19T03:05:02.150Z,20.22
2019-02-19T03:07:43.010Z,20.22
2019-02-19T03:10:14.674Z,20.30
2019-02-19T03:12:45.977Z,20.61
2019-02-19T03:15:19.131Z,20.61
2019-02-19T03:17:50.552Z,20.64
2019-02-19T03:20:22.074Z,20.64
2019-02-19T03:22:53.689Z,20.64
2019-02-19T03:25:25.372Z,21.04
2019-02-19T03:27:56.758Z,20.87
2019-02-19T03:30:28.677Z,20.95
2019-02-19T03:33:00.049Z,21.00
2019-02-19T03:35:31.648Z,20.97
2019-02-19T03:38:03.015Z,20.94
2019-02-19T03:40:36.971Z,21.15
2019-02-19T03:43:09.692Z,21.19
2019-02-19T03:45:42.677Z,21.19
2019-02-19T03:48:14.058Z,21.18
2019-02-19T03:50:45.781Z,21.34
2019-02-19T03:53:17.318Z,21.43
2019-02-19T03:55:49.081Z,21.35
2019-02-19T03:58:20.822Z,21.35
2019-02-19T04:00:52.265Z,21.18
2019-02-19T04:03:23.672Z,21.18
2019-02-19T04:05:55.339Z,21.31
2019-02-19T04:08:27.264Z,21.30
2019-02-19T04:10:58.806Z,21.21
2019-02-19T04:13:30.389Z,21.21
2019-02-19T04:16:01.613Z,21.48
2019-02-19T04:18:34.855Z,21.48
2019-02-19T04:21:06.295Z,21.58
2019-02-19T04:23:38.111Z,21.54
2019-02-19T04:26:09.502Z,21.54
2019-02-19T04:28:40.880Z,21.59
2019-02-19T04:31:12.524Z,21.65
2019-02-19T04:33:44.671Z,21.67
2019-02-19T04:36:16.329Z,21.67
2019-02-19T04:38:48.116Z,21.87
2019-02-19T04:41:19.521Z,21.87
2019-02-19T04:43:51.765Z,22.18
2019-02-19T04:46:31.343Z,22.57
2019-02-19T04:48:56.321Z,22.57
2019-02-19T04:51:27.987Z,22.15
2019-02-19T04:53:59.352Z,22.15
2019-02-19T04:56:30.693Z,22.39
2019-02-19T04:59:02.518Z,22.39
2019-02-19T05:01:34.026Z,22.39
2019-02-19T05:04:08.470Z,22.47
2019-02-19T05:06:40.269Z,22.78
2019-02-19T05:09:11.862Z,22.73
2019-02-19T05:11:43.150Z,22.57
2019-02-19T05:14:14.729Z,22.71
2019-02-19T05:16:46.348Z,22.72
2019-02-19T05:19:17.781Z,22.79
2019-02-19T05:21:49.100Z,22.79
2019-02-19T05:24:20.375Z,22.90
2019-02-19T05:26:51.574Z,22.83
2019-02-19T05:29:23.264Z,22.98
2019-02-19T05:31:55.390Z,23.31
2019-02-19T05:34:27.521Z,23.31
2019-02-19T05:36:59.920Z,23.28
2019-02-19T05:39:31.563Z,23.31
2019-02-19T05:42:02.805Z,23.31
2019-02-19T05:44:34.507Z,23.16
2019-02-19T05:47:06.292Z,23.16
2019-02-19T05:49:38.568Z,23.63
2019-02-19T05:52:09.889Z,23.51
2019-02-19T05:54:41.989Z,23.61
2019-02-19T05:57:13.489Z,23.85
2019-02-19T05:59:45.111Z,23.85
2019-02-19T06:02:16.751Z,23.88
2019-02-19T06:04:48.081Z,23.67
2019-02-19T06:07:19.730Z,23.68
2019-02-19T06:09:51.231Z,23.66
2019-02-19T06:12:22.794Z,23.91
2019-02-19T06:14:54.188Z,23.91
2019-02-19T06:17:25.686Z,23.29
2019-02-19T06:19:57.438Z,23.90
2019-02-19T06:22:28.962Z,23.74
2019-02-19T06:25:00.560Z,23.79
2019-02-19T06:27:32.066Z,23.79
2019-02-19T06:30:03.769Z,24.00
2019-02-19T06:32:35.325Z,23.92
2019-02-19T06:35:07.329Z,24.30
2019-02-19T06:37:38.809Z,24.29
2019-02-19T06:40:17.439Z,24.29
2019-02-19T06:42:49.123Z,24.08
2019-02-19T06:45:20.794Z,23.43
2019-02-19T06:47:51.972Z,24.35
2019-02-19T06:50:23.437Z,24.35
2019-02-19T06:52:55.134Z,24.49
2019-02-19T06:55:26.817Z,24.34
2019-02-19T06:57:58.009Z,24.48
2019-02-19T07:00:29.467Z,24.48
2019-02-19T07:03:06.466Z,24.74
2019-02-19T07:05:39.814Z,24.74
2019-02-19T07:08:10.943Z,25.00
2019-02-19T07:10:42.326Z,25.08
2019-02-19T07:13:13.873Z,24.96
2019-02-19T07:15:45.344Z,24.96
2019-02-19T07:18:16.894Z,25.06
2019-02-19T07:20:49.547Z,24.96
2019-02-19T07:23:20.718Z,24.96
2019-02-19T07:25:52.148Z,25.12
2019-02-19T07:28:23.895Z,24.84
2019-02-19T07:30:55.229Z,24.77
2019-02-19T07:33:26.652Z,24.87
2019-02-19T07:35:57.984Z,24.99
2019-02-19T07:38:29.491Z,24.89
2019-02-19T07:41:00.824Z,24.89
2019-02-19T07:43:32.368Z,25.07
2019-02-19T07:46:03.889Z,24.98
2019-02-19T07:48:35.491Z,24.85
2019-02-19T07:51:07.217Z,24.85
2019-02-19T07:53:38.667Z,25.10
2019-02-19T07:56:10.351Z,25.09
2019-02-19T07:58:41.735Z,25.02
2019-02-19T08:01:13.439Z,25.02
2019-02-19T08:03:45.077Z,25.07
2019-02-19T08:06:16.800Z,25.20
2019-02-19T08:08:48.634Z,25.20
2019-02-19T08:11:19.968Z,25.13
2019-02-19T08:13:51.449Z,25.27
2019-02-19T08:16:23.018Z,25.19
2019-02-19T08:18:54.664Z,25.27
2019-02-19T08:21:27.197Z,25.29
2019-02-19T08:23:58.476Z,25.29
2019-02-19T08:26:31.116Z,25.51
2019-02-19T08:29:13.105Z,25.51
2019-02-19T08:31:35.780Z,25.49
2019-02-19T08:34:07.177Z,25.51
2019-02-19T08:36:39.432Z,25.55
2019-02-19T08:39:10.695Z,25.32
2019-02-19T08:41:43.923Z,25.33
2019-02-19T08:44:15.878Z,25.33
2019-02-19T08:46:47.452Z,25.43
2019-02-19T08:49:19.131Z,25.43
2019-02-19T08:51:56.067Z,25.39
2019-02-19T08:54:24.062Z,25.39
2019-02-19T08:56:57.616Z,25.48
2019-02-19T08:59:29.210Z,25.51
2019-02-19T09:02:00.945Z,25.51
2019-02-19T09:04:32.474Z,25.80
2019-02-19T09:07:04.095Z,25.80
2019-02-19T09:09:35.944Z,25.73
2019-02-19T09:12:08.283Z,25.87
2019-02-19T09:14:40.887Z,25.87
2019-02-19T09:17:12.726Z,25.89
2019-02-19T09:19:44.330Z,25.67
2019-02-19T09:22:16.585Z,25.67
2019-02-19T09:24:48.039Z,25.75
2019-02-19T09:27:21.191Z,25.62
2019-02-19T09:29:53.265Z,25.66
2019-02-19T09:32:25.093Z,25.68
2019-02-19T09:34:56.826Z,25.58
2019-02-19T09:37:28.463Z,25.59
2019-02-19T09:40:01.072Z,25.81
2019-02-19T09:42:32.565Z,25.80
2019-02-19T09:45:05.424Z,25.80
2019-02-19T09:47:37.027Z,25.70
2019-02-19T09:50:13.579Z,25.57
2019-02-19T09:52:45.002Z,25.56
2019-02-19T09:55:16.370Z,25.67
2019-02-19T09:57:48.264Z,25.69
2019-02-19T10:00:20.124Z,25.69
2019-02-19T10:02:51.617Z,25.53
2019-02-19T10:05:23.296Z,25.44
2019-02-19T10:07:55.903Z,25.44
2019-02-19T10:10:27.487Z,25.58
2019-02-19T10:12:58.904Z,25.49
2019-02-19T10:15:30.201Z,25.35
2019-02-19T10:18:09.740Z,25.41
2019-02-19T10:20:34.784Z,25.41
2019-02-19T10:23:06.282Z,25.46
2019-02-19T10:25:37.884Z,25.51
2019-02-19T10:28:09.459Z,25.51
2019-02-19T10:30:40.923Z,25.55
2019-02-19T10:33:12.337Z,25.54
2019-02-19T10:35:43.983Z,25.45
2019-02-19T10:38:15.370Z,25.37
2019-02-19T10:40:46.803Z,25.65
2019-02-19T10:43:18.336Z,25.65
2019-02-19T10:45:49.619Z,25.66
2019-02-19T10:48:20.979Z,25.53
2019-02-19T10:50:52.310Z,25.50
2019-02-19T10:53:23.438Z,25.46
2019-02-19T10:55:54.860Z,25.46
2019-02-19T10:58:26.114Z,25.43
2019-02-19T11:00:57.403Z,25.48
2019-02-19T11:03:29.026Z,25.48
2019-02-19T11:06:00.406Z,25.47
2019-02-19T11:08:31.892Z,25.47
2019-02-19T11:11:03.349Z,25.52
2019-02-19T11:13:34.824Z,25.52
2019-02-19T11:16:06.151Z,25.38
2019-02-19T11:18:37.496Z,25.38
2019-02-19T11:21:08.716Z,25.38
2019-02-19T11:23:40.419Z,25.34
2019-02-19T11:26:11.825Z,25.34
2019-02-19T11:28:43.156Z,25.40
2019-02-19T11:31:14.549Z,25.40
2019-02-19T11:33:46.055Z,25.36
2019-02-19T11:36:17.686Z,25.36
2019-02-19T11:38:49.487Z,25.19
2019-02-19T11:41:20.906Z,25.19
2019-02-19T11:43:52.430Z,25.20
2019-02-19T11:46:25.599Z,25.20
2019-02-19T11:48:57.161Z,25.19
2019-02-19T11:51:28.551Z,25.19
2019-02-19T11:53:59.839Z,25.22
2019-02-19T11:56:31.554Z,25.22
2019-02-19T11:59:02.915Z,25.10
2019-02-19T12:01:34.328Z,25.13
2019-02-19T12:04:05.575Z,25.05
2019-02-19T12:06:36.978Z,24.99
2019-02-19T12:09:08.583Z,24.99
2019-02-19T12:11:40.331Z,24.91
2019-02-19T12:14:11.604Z,24.81
2019-02-19T12:16:43.045Z,24.78
2019-02-19T12:19:14.365Z,24.72
2019-02-19T12:21:45.826Z,24.72
2019-02-19T12:24:17.692Z,24.62
2019-02-19T12:26:49.020Z,24.53
2019-02-19T12:29:20.685Z,24.53
2019-02-19T12:31:52.098Z,24.39
2019-02-19T12:34:23.485Z,24.30
2019-02-19T12:36:55.239Z,24.32
2019-02-19T12:39:26.725Z,24.27
2019-02-19T12:41:58.419Z,24.27
2019-02-19T12:44:29.690Z,24.23
2019-02-19T12:47:02.987Z,24.33
2019-02-19T12:49:34.329Z,24.33
2019-02-19T12:52:05.798Z,24.25
2019-02-19T12:54:37.139Z,24.14
2019-02-19T12:57:08.394Z,24.12
2019-02-19T12:59:39.838Z,24.12
2019-02-19T13:02:11.075Z,24.24
2019-02-19T13:04:42.699Z,24.18
2019-02-19T13:07:14.502Z,24.09
2019-02-19T13:09:45.930Z,24.08
2019-02-19T13:12:17.456Z,23.97
2019-02-19T13:14:48.833Z,23.96
2019-02-19T13:17:20.264Z,23.96
2019-02-19T13:19:51.491Z,23.96
2019-02-19T13:22:23.179Z,23.90
2019-02-19T13:24:54.795Z,23.90
2019-02-19T13:27:26.581Z,23.98
2019-02-19T13:29:57.829Z,23.87
2019-02-19T13:32:29.404Z,23.56
2019-02-19T13:35:01.324Z,23.59
2019-02-19T13:37:33.837Z,23.61
2019-02-19T13:40:05.865Z,23.73
2019-02-19T13:42:37.046Z,23.71
2019-02-19T13:45:09.417Z,23.71
2019-02-19T13:47:40.801Z,23.57
2019-02-19T13:50:15.098Z,23.57
2019-02-19T13:53:08.116Z,23.79
2019-02-19T13:55:42.999Z,23.92
2019-02-19T13:58:14.366Z,23.71
2019-02-19T14:00:47.559Z,23.62
2019-02-19T14:03:18.738Z,23.30
2019-02-19T14:05:49.956Z,23.60
2019-02-19T14:08:21.098Z,23.41
2019-02-19T14:10:52.686Z,23.46
2019-02-19T14:13:23.966Z,23.46
2019-02-19T14:16:18.173Z,23.46
2019-02-19T14:19:01.419Z,23.21
2019-02-19T14:21:51.413Z,23.30
2019-02-19T14:24:33.106Z,23.30
2019-02-19T14:27:29.352Z,23.13
2019-02-19T14:30:25.868Z,23.24
2019-02-19T14:33:14.832Z,23.49
2019-02-19T14:36:17.201Z,23.20
2019-02-19T14:39:14.073Z,23.20
2019-02-19T14:42:22.671Z,23.25
2019-02-19T14:45:28.535Z,23.30
2019-02-19T14:48:17.896Z,23.30
2019-02-19T14:51:14.248Z,23.39
2019-02-19T14:54:10.974Z,23.39
2019-02-19T14:56:50.510Z,23.27
2019-02-19T14:59:50.021Z,23.37
2019-02-19T15:02:40.633Z,23.35
2019-02-19T15:05:43.603Z,23.35
2019-02-19T15:08:32.792Z,22.75
2019-02-19T15:11:22.577Z,22.66
2019-02-19T15:14:01.401Z,22.66
2019-02-19T15:16:52.176Z,22.65
2019-02-19T15:19:38.899Z,22.65
2019-02-19T15:22:34.499Z,22.66
2019-02-19T15:25:40.101Z,22.66
2019-02-19T15:28:32.805Z,22.81
2019-02-19T15:31:21.353Z,22.75
2019-02-19T15:34:14.922Z,22.75
2019-02-19T15:37:10.706Z,22.69
2019-02-19T15:39:59.400Z,22.62
2019-02-19T15:42:55.638Z,22.64
2019-02-19T15:45:49.721Z,22.53
2019-02-19T15:48:49.158Z,22.28
2019-02-19T15:51:39.706Z,22.50
2019-02-19T15:54:29.375Z,22.57
2019-02-19T15:57:15.688Z,22.57
2019-02-19T16:00:20.408Z,22.54
2019-02-19T16:03:14.320Z,22.46
2019-02-19T16:06:00.921Z,22.34
2019-02-19T16:08:42.283Z,22.19
2019-02-19T16:11:29.557Z,22.19
2019-02-19T16:14:18.754Z,22.25
2019-02-19T16:17:08.230Z,22.25
2019-02-19T16:19:58.313Z,22.19
2019-02-19T16:22:42.269Z,22.17
2019-02-19T16:25:38.502Z,22.12
2019-02-19T16:28:38.525Z,22.15
2019-02-19T16:31:23.765Z,22.01
2019-02-19T16:34:17.065Z,22.09
2019-02-19T16:37:03.831Z,22.12
2019-02-19T16:39:52.619Z,22.09
2019-02-19T16:42:55.429Z,22.09
2019-02-19T16:45:43.674Z,22.19
2019-02-19T16:48:40.602Z,22.11
2019-02-19T16:51:43.606Z,22.18
2019-02-19T16:54:43.313Z,22.18
2019-02-19T16:57:21.926Z,22.05
2019-02-19T17:00:07.077Z,22.05
2019-02-19T17:02:58.917Z,22.06
2019-02-19T17:05:49.412Z,21.91
2019-02-19T17:08:38.475Z,21.96
2019-02-19T17:11:32.651Z,21.83
2019-02-19T17:14:22.852Z,21.83
2019-02-19T17:17:25.225Z,22.00
2019-02-19T17:20:26.479Z,21.97
2019-02-19T17:23:04.580Z,21.85
2019-02-19T17:25:44.743Z,21.81
2019-02-19T17:28:47.091Z,21.63
2019-02-19T17:31:28.811Z,21.65
2019-02-19T17:34:17.465Z,21.65
2019-02-19T17:37:14.297Z,21.51
2019-02-19T17:39:58.989Z,21.51
2019-02-19T17:42:37.833Z,21.61
2019-02-19T17:45:24.393Z,21.55
2019-02-19T17:48:04.654Z,21.50
2019-02-19T17:50:56.547Z,21.50
2019-02-19T17:53:55.661Z,21.45
2019-02-19T17:56:44.274Z,21.45
2019-02-19T17:59:50.064Z,21.22
2019-02-19T18:02:30.825Z,21.22
2019-02-19T18:05:24.046Z,21.27
2019-02-19T18:08:12.949Z,21.27
2019-02-19T18:11:12.624Z,21.53
2019-02-19T18:13:48.819Z,21.53
2019-02-19T18:16:37.356Z,21.28
2019-02-19T18:19:09.057Z,21.48
2019-02-19T18:21:41.855Z,21.58
2019-02-19T18:24:13.437Z,21.58
2019-02-19T18:26:44.891Z,21.53
2019-02-19T18:29:16.405Z,21.53
2019-02-19T18:31:47.795Z,21.32
2019-02-19T18:34:19.021Z,21.42
2019-02-19T18:36:50.521Z,21.38
2019-02-19T18:39:21.884Z,21.38
2019-02-19T18:41:53.238Z,21.42
2019-02-19T18:44:24.657Z,21.42
2019-02-19T18:46:56.708Z,21.34
2019-02-19T18:49:28.127Z,21.30
2019-02-19T18:51:59.268Z,21.16
2019-02-19T18:54:30.458Z,21.14
2019-02-19T18:57:01.860Z,21.14
2019-02-19T18:59:34.462Z,21.25
2019-02-19T19:02:06.170Z,21.20
2019-02-19T19:04:37.808Z,21.27
2019-02-19T19:07:09.170Z,21.19
2019-02-19T19:09:40.665Z,21.38
2019-02-19T19:12:11.829Z,21.38
2019-02-19T19:14:43.728Z,21.22
2019-02-19T19:17:15.436Z,21.22
2019-02-19T19:19:46.799Z,21.14
2019-02-19T19:22:18.070Z,21.30
2019-02-19T19:24:49.418Z,21.01
2019-02-19T19:27:20.623Z,21.01
2019-02-19T19:29:52.013Z,21.07
2019-02-19T19:32:23.304Z,21.01
2019-02-19T19:34:54.650Z,21.06
2019-02-19T19:37:26.478Z,21.06
2019-02-19T19:39:57.930Z,21.05
2019-02-19T19:42:29.560Z,21.05
2019-02-19T19:45:00.982Z,20.86
2019-02-19T19:47:32.690Z,20.86
2019-02-19T19:50:04.637Z,21.11
2019-02-19T19:52:36.251Z,21.11
2019-02-19T19:55:08.293Z,21.11
2019-02-19T19:57:39.847Z,21.13
2019-02-19T20:00:11.324Z,21.01
2019-02-19T20:02:42.946Z,20.96
2019-02-19T20:05:14.032Z,20.96
2019-02-19T20:07:45.620Z,20.94
2019-02-19T20:10:16.755Z,20.91
2019-02-19T20:12:48.408Z,20.96
2019-02-19T20:15:19.746Z,21.13
2019-02-19T20:17:51.089Z,21.14
2019-02-19T20:20:22.566Z,21.14
2019-02-19T20:22:53.953Z,21.10
2019-02-19T20:25:25.265Z,21.06
2019-02-19T20:27:56.545Z,21.06
2019-02-19T20:30:28.254Z,20.99
2019-02-19T20:32:59.608Z,20.96
2019-02-19T20:35:30.601Z,21.03
2019-02-19T20:38:01.824Z,21.03
2019-02-19T20:40:33.301Z,20.91
2019-02-19T20:43:04.913Z,20.95
2019-02-19T20:45:36.405Z,20.95
2019-02-19T20:48:08.040Z,20.94
2019-02-19T20:50:39.586Z,20.95
2019-02-19T20:53:11.958Z,20.95
2019-02-19T20:55:43.879Z,20.91
2019-02-19T20:58:15.219Z,20.91
2019-02-19T21:00:46.447Z,20.91
2019-02-19T21:03:17.934Z,20.79
2019-02-19T21:05:49.447Z,20.79
2019-02-19T21:08:20.831Z,20.82
2019-02-19T21:10:52.214Z,20.78
2019-02-19T21:13:24.092Z,20.78
2019-02-19T21:15:56.003Z,20.89
2019-02-19T21:18:27.812Z,20.89
2019-02-19T21:20:59.250Z,20.90
2019-02-19T21:23:30.588Z,20.90
2019-02-19T21:26:02.011Z,20.86
2019-02-19T21:28:33.877Z,20.92
2019-02-19T21:31:05.578Z,20.95
2019-02-19T21:33:36.971Z,20.95
2019-02-19T21:36:08.786Z,20.81
2019-02-19T21:38:41.126Z,20.81
2019-02-19T21:41:12.485Z,21.00
2019-02-19T21:43:43.947Z,21.00
2019-02-19T21:46:15.397Z,20.84
2019-02-19T21:48:48.235Z,20.96
2019-02-19T21:51:20.124Z,20.90
2019-02-19T21:53:51.850Z,20.89
2019-02-19T21:56:23.381Z,20.78
2019-02-19T21:58:54.927Z,20.78
2019-02-19T22:01:26.375Z,20.84
2019-02-19T22:03:57.695Z,20.86
2019-02-19T22:06:29.427Z,20.75
2019-02-19T22:09:00.759Z,20.83
2019-02-19T22:11:33.856Z,20.77
2019-02-19T22:14:05.308Z,20.77
2019-02-19T22:16:36.433Z,20.81
2019-02-19T22:19:09.035Z,20.73
2019-02-19T22:22:03.468Z,20.73
2019-02-19T22:24:40.077Z,20.75
2019-02-19T22:27:11.681Z,20.53
2019-02-19T22:29:43.661Z,20.53
2019-02-19T22:32:16.810Z,20.48
2019-02-19T22:34:48.312Z,20.64
2019-02-19T22:37:19.567Z,20.62
2019-02-19T22:39:51.337Z,20.55
2019-02-19T22:42:22.559Z,20.46
2019-02-19T22:44:55.021Z,20.45
2019-02-19T22:47:26.370Z,20.45
2019-02-19T22:49:58.126Z,20.56
2019-02-19T22:52:29.355Z,20.56
2019-02-19T22:55:13.130Z,20.37
2019-02-19T22:57:44.490Z,20.37
2019-02-19T23:00:36.161Z,20.42
2019-02-19T23:03:09.028Z,20.40
2019-02-19T23:05:40.937Z,20.40
2019-02-19T23:08:12.582Z,20.20
2019-02-19T23:10:44.076Z,20.31
2019-02-19T23:13:15.975Z,20.30
2019-02-19T23:15:47.954Z,20.19
2019-02-19T23:18:19.475Z,20.19
2019-02-19T23:20:51.338Z,20.25
2019-02-19T23:23:23.004Z,20.17
2019-02-19T23:25:54.830Z,20.17
2019-02-19T23:28:26.389Z,20.12
2019-02-19T23:30:57.997Z,20.15
2019-02-19T23:33:29.543Z,20.19
2019-02-19T23:36:15.179Z,20.20
2019-02-19T23:38:47.265Z,20.23
2019-02-19T23:41:19.426Z,20.11
2019-02-19T23:43:50.963Z,20.11
2019-02-19T23:46:22.607Z,20.10
2019-02-19T23:48:54.088Z,20.09
2019-02-19T23:51:25.511Z,20.19
2019-02-19T23:53:56.971Z,20.20
2019-02-19T23:56:28.613Z,20.20
2019-02-19T23:59:00.377Z,20.21
